createdAt,value
2022-09-22T00:01:59.978Z,1.48
2022-09-22T00:04:33.580Z,1.65
2022-09-22T00:07:04.358Z,1.30
2022-09-22T00:09:35.517Z,1.30
2022-09-22T00:12:06.559Z,1.70
2022-09-22T00:14:37.580Z,1.73
2022-09-22T00:17:08.605Z,1.42
2022-09-22T00:19:42.074Z,1.38
2022-09-22T00:22:13.210Z,1.55
2022-09-22T00:24:45.663Z,1.50
2022-09-22T00:27:16.334Z,1.83
2022-09-22T00:29:47.219Z,1.30
2022-09-22T00:32:18.743Z,1.70
2022-09-22T00:34:52.698Z,1.55
2022-09-22T00:37:23.322Z,1.45
2022-09-22T00:39:54.187Z,1.80
2022-09-22T00:42:26.240Z,1.52
2022-09-22T00:44:56.891Z,1.80
2022-09-22T00:47:40.204Z,1.55
2022-09-22T00:50:18.292Z,1.30
2022-09-22T00:52:52.400Z,1.45
2022-09-22T00:55:29.233Z,1.35
2022-09-22T01:00:31.650Z,1.30
2022-09-22T01:03:04.035Z,1.80
2022-09-22T01:05:39.157Z,1.75
2022-09-22T01:08:11.072Z,2.00
2022-09-22T01:10:42.417Z,2.00
2022-09-22T01:13:22.863Z,1.80
2022-09-22T01:16:05.773Z,1.60
2022-09-22T01:19:05.441Z,1.50
2022-09-22T01:21:46.451Z,1.60
2022-09-22T01:24:52.902Z,1.70
2022-09-22T01:27:57.757Z,1.60
2022-09-22T01:30:36.106Z,1.80
2022-09-22T01:33:27.784Z,1.52
2022-09-22T01:36:18.558Z,1.52
2022-09-22T01:38:58.999Z,1.83
2022-09-22T01:41:45.134Z,1.73
2022-09-22T01:44:21.678Z,1.95
2022-09-22T01:46:58.950Z,2.17
2022-09-22T01:49:33.241Z,2.05
2022-09-22T01:52:09.243Z,2.00
2022-09-22T01:54:45.565Z,1.80
2022-09-22T01:57:20.548Z,1.40
2022-09-22T01:59:56.376Z,1.65
2022-09-22T02:02:38.167Z,1.50
2022-09-22T02:05:15.272Z,1.63
2022-09-22T02:10:23.570Z,1.85
2022-09-22T02:12:55.712Z,2.40
2022-09-22T02:15:39.003Z,2.00
2022-09-22T02:18:17.290Z,1.63
2022-09-22T02:20:48.423Z,1.60
2022-09-22T02:23:19.056Z,1.70
2022-09-22T02:25:50.908Z,1.73
2022-09-22T02:28:24.163Z,1.85
2022-09-22T02:31:17.884Z,1.73
2022-09-22T02:33:50.984Z,1.85
2022-09-22T02:36:38.883Z,1.73
2022-09-22T02:39:13.270Z,1.80
2022-09-22T02:42:04.463Z,1.85
2022-09-22T02:44:39.828Z,1.63
2022-09-22T02:47:16.209Z,1.70
2022-09-22T02:49:52.438Z,1.92
2022-09-22T02:52:26.046Z,1.95
2022-09-22T02:54:57.466Z,1.55
2022-09-22T02:57:28.078Z,1.63
2022-09-22T02:59:58.698Z,1.70
2022-09-22T03:02:29.355Z,1.80
2022-09-22T03:05:02.618Z,1.90
2022-09-22T03:07:33.766Z,1.98
2022-09-22T03:10:04.568Z,1.80
2022-09-22T03:12:35.408Z,1.80
2022-09-22T03:15:06.479Z,2.03
2022-09-22T03:17:37.165Z,1.60
2022-09-22T03:20:12.646Z,1.80
2022-09-22T03:22:43.442Z,1.70
2022-09-22T03:25:14.934Z,1.67
2022-09-22T03:27:45.794Z,1.60
2022-09-22T03:30:17.250Z,2.00
2022-09-22T03:32:47.935Z,1.67
2022-09-22T03:35:21.476Z,1.48
2022-09-22T03:37:52.273Z,1.92
2022-09-22T03:40:23.662Z,1.65
2022-09-22T03:42:54.956Z,1.90
2022-09-22T03:45:25.687Z,1.75
2022-09-22T03:47:58.203Z,1.40
2022-09-22T03:50:31.562Z,2.28
2022-09-22T03:53:02.286Z,2.15
2022-09-22T03:55:33.032Z,1.50
2022-09-22T03:58:04.042Z,1.55
2022-09-22T04:00:34.995Z,1.58
2022-09-22T04:03:05.748Z,1.60
2022-09-22T04:05:39.109Z,1.83
2022-09-22T04:08:09.857Z,1.60
2022-09-22T04:10:40.600Z,1.88
2022-09-22T04:13:11.399Z,1.98
2022-09-22T04:15:42.205Z,1.92
2022-09-22T04:18:13.075Z,1.70
2022-09-22T04:20:47.420Z,2.05
2022-09-22T04:23:19.486Z,2.28
2022-09-22T04:25:50.217Z,1.75
2022-09-22T04:28:21.030Z,1.90
2022-09-22T04:30:52.039Z,1.85
2022-09-22T04:33:22.937Z,1.98
2022-09-22T04:35:57.198Z,1.50
2022-09-22T04:38:28.141Z,1.33
2022-09-22T04:40:59.010Z,1.63
2022-09-22T04:43:30.081Z,1.63
2022-09-22T04:46:00.856Z,1.50
2022-09-22T04:48:32.304Z,1.50
2022-09-22T04:51:06.556Z,1.48
2022-09-22T04:53:38.050Z,1.50
2022-09-22T04:56:10.182Z,1.60
2022-09-22T04:58:41.061Z,1.52
2022-09-22T05:01:11.900Z,1.55
2022-09-22T05:03:42.649Z,1.73
2022-09-22T05:06:16.003Z,1.67
2022-09-22T05:08:46.707Z,1.67
2022-09-22T05:11:17.417Z,1.88
2022-09-22T05:13:48.467Z,2.00
2022-09-22T05:16:19.496Z,1.70
2022-09-22T05:18:50.587Z,1.90
2022-09-22T05:21:23.938Z,1.80
2022-09-22T05:23:55.492Z,1.50
2022-09-22T05:26:26.289Z,1.75
2022-09-22T05:28:57.780Z,1.70
2022-09-22T05:31:28.935Z,1.60
2022-09-22T05:34:00.165Z,1.60
2022-09-22T05:36:34.170Z,1.30
2022-09-22T05:39:05.320Z,1.73
2022-09-22T05:41:36.860Z,1.70
2022-09-22T05:44:08.237Z,2.00
2022-09-22T05:46:39.623Z,1.90
2022-09-22T05:49:10.791Z,1.70
2022-09-22T05:51:45.304Z,1.50
2022-09-22T05:54:21.240Z,1.40
2022-09-22T05:56:54.332Z,1.45
2022-09-22T05:59:25.701Z,2.08
2022-09-22T06:01:59.652Z,1.80
2022-09-22T06:04:31.148Z,1.70
2022-09-22T06:07:04.668Z,1.92
2022-09-22T06:09:35.831Z,2.33
2022-09-22T06:12:08.821Z,1.80
2022-09-22T06:14:39.668Z,2.17
2022-09-22T06:17:12.690Z,2.28
2022-09-22T06:19:50.381Z,1.80
2022-09-22T06:22:24.630Z,1.92
2022-09-22T06:24:55.725Z,2.13
2022-09-22T06:27:28.002Z,2.60
2022-09-22T06:29:59.344Z,7.72
2022-09-22T06:32:30.041Z,6.13
2022-09-22T06:35:03.012Z,6.88
2022-09-22T06:37:38.977Z,5.45
2022-09-22T06:40:16.646Z,3.17
2022-09-22T06:42:48.664Z,2.17
2022-09-22T06:45:20.114Z,1.80
2022-09-22T06:47:51.331Z,1.63
2022-09-22T06:50:22.436Z,2.63
2022-09-22T06:53:01.581Z,2.00
2022-09-22T06:55:41.046Z,2.13
2022-09-22T06:58:13.131Z,1.90
2022-09-22T07:00:44.552Z,2.00
2022-09-22T07:03:20.942Z,2.00
2022-09-22T07:06:01.520Z,2.08
2022-09-22T07:08:38.598Z,2.72
2022-09-22T07:11:11.818Z,2.60
2022-09-22T07:13:45.015Z,2.60
2022-09-22T07:16:18.919Z,2.33
2022-09-22T07:18:51.697Z,2.50
2022-09-22T07:21:24.292Z,3.08
2022-09-22T07:23:59.222Z,2.70
2022-09-22T07:26:32.915Z,2.38
2022-09-22T07:29:06.332Z,2.45
2022-09-22T07:31:37.888Z,2.70
2022-09-22T07:34:08.827Z,2.40
2022-09-22T07:36:41.280Z,2.65
2022-09-22T07:39:15.368Z,3.10
2022-09-22T07:41:47.036Z,2.40
2022-09-22T07:44:31.434Z,2.65
2022-09-22T07:47:03.781Z,2.97
2022-09-22T07:49:35.529Z,2.85
2022-09-22T07:52:06.919Z,2.40
2022-09-22T07:54:42.376Z,2.20
2022-09-22T07:57:13.459Z,2.38
2022-09-22T07:59:44.939Z,2.50
2022-09-22T08:02:16.318Z,2.58
2022-09-22T08:04:47.504Z,2.75
2022-09-22T08:07:18.704Z,2.88
2022-09-22T08:09:53.037Z,2.85
2022-09-22T08:12:24.448Z,2.67
2022-09-22T08:14:58.376Z,3.13
2022-09-22T08:17:29.689Z,3.05
2022-09-22T08:20:02.851Z,2.97
2022-09-22T08:22:33.607Z,3.17
2022-09-22T08:25:08.030Z,3.00
2022-09-22T08:27:39.711Z,3.25
2022-09-22T08:30:12.149Z,3.10
2022-09-22T08:32:43.179Z,3.35
2022-09-22T08:35:14.111Z,3.20
2022-09-22T08:37:46.057Z,3.10
2022-09-22T08:40:25.137Z,3.60
2022-09-22T08:42:57.737Z,2.58
2022-09-22T08:45:34.346Z,2.50
2022-09-22T08:48:34.829Z,1.50
2022-09-22T08:51:25.351Z,2.90
2022-09-22T08:54:00.959Z,3.28
2022-09-22T08:56:42.746Z,2.95
2022-09-22T08:59:23.323Z,2.95
2022-09-22T09:02:24.894Z,2.80
2022-09-22T09:05:31.998Z,2.60
2022-09-22T09:08:10.386Z,2.50
2022-09-22T09:10:53.346Z,2.55
2022-09-22T09:13:43.063Z,1.50
2022-09-22T09:16:42.097Z,2.05
2022-09-22T09:19:20.556Z,1.90
2022-09-22T09:21:54.856Z,2.10
2022-09-22T09:27:29.724Z,2.30
2022-09-22T09:30:09.465Z,1.90
2022-09-22T09:32:49.138Z,1.58
2022-09-22T09:35:25.070Z,1.88
2022-09-22T09:37:59.368Z,1.95
2022-09-22T09:40:31.271Z,1.90
2022-09-22T09:43:04.782Z,1.20
2022-09-22T09:45:47.850Z,1.95
2022-09-22T09:48:30.868Z,1.38
2022-09-22T09:51:06.194Z,1.70
2022-09-22T09:53:42.413Z,1.83
2022-09-22T09:56:25.272Z,1.80
2022-09-22T09:59:12.930Z,1.75
2022-09-22T10:01:48.451Z,1.67
2022-09-22T10:04:30.504Z,1.45
2022-09-22T10:07:17.367Z,1.30
2022-09-22T10:09:51.472Z,1.40
2022-09-22T10:12:29.517Z,1.20
2022-09-22T10:15:01.505Z,1.30
2022-09-22T10:17:43.122Z,1.35
2022-09-22T10:20:26.004Z,1.20
2022-09-22T10:22:57.734Z,0.93
2022-09-22T10:25:32.282Z,0.98
2022-09-22T10:28:05.925Z,1.63
2022-09-22T10:30:37.734Z,1.20
2022-09-22T10:33:17.917Z,1.15
2022-09-22T10:35:51.071Z,1.30
2022-09-22T10:38:24.254Z,1.27
2022-09-22T10:41:00.534Z,0.90
2022-09-22T10:43:45.330Z,1.27
2022-09-22T10:46:40.207Z,1.10
2022-09-22T10:49:28.538Z,1.27
2022-09-22T10:52:11.181Z,1.00
2022-09-22T10:55:09.751Z,1.58
2022-09-22T10:57:56.841Z,1.23
2022-09-22T11:00:29.539Z,1.10
2022-09-22T11:03:31.772Z,0.88
2022-09-22T11:06:39.810Z,1.10
2022-09-22T11:09:31.250Z,1.10
2022-09-22T11:12:20.285Z,1.35
2022-09-22T11:15:19.840Z,1.23
2022-09-22T11:18:12.724Z,1.02
2022-09-22T11:20:46.654Z,1.15
2022-09-22T11:24:06.808Z,1.02
2022-09-22T11:26:53.693Z,1.10
2022-09-22T11:29:54.833Z,1.00
2022-09-22T11:32:47.388Z,1.05
2022-09-22T11:35:37.596Z,1.45
2022-09-22T11:38:24.290Z,1.00
2022-09-22T11:41:19.256Z,0.82
2022-09-22T11:44:10.395Z,1.15
2022-09-22T11:46:56.988Z,1.30
2022-09-22T11:49:41.253Z,1.30
2022-09-22T11:52:25.335Z,1.20
2022-09-22T11:55:14.454Z,1.25
2022-09-22T11:57:52.365Z,0.80
2022-09-22T12:00:24.536Z,1.35
2022-09-22T12:03:02.275Z,1.25
2022-09-22T12:05:41.899Z,1.10
2022-09-22T12:08:17.612Z,0.70
2022-09-22T12:10:50.802Z,1.40
2022-09-22T12:13:26.707Z,0.80
2022-09-22T12:16:09.391Z,1.15
2022-09-22T12:18:46.975Z,1.08
2022-09-22T12:21:32.907Z,1.58
2022-09-22T12:24:07.177Z,0.50
2022-09-22T12:26:40.340Z,1.10
2022-09-22T12:29:26.758Z,1.15
2022-09-22T12:32:00.032Z,0.85
2022-09-22T12:34:35.685Z,0.82
2022-09-22T12:37:14.868Z,0.90
2022-09-22T12:39:47.847Z,1.13
2022-09-22T12:42:25.345Z,0.93
2022-09-22T12:45:02.538Z,1.27
2022-09-22T12:47:36.498Z,1.55
2022-09-22T12:50:10.466Z,1.40
2022-09-22T12:53:03.676Z,1.58
2022-09-22T12:55:41.201Z,1.75
2022-09-22T12:58:43.115Z,0.88
2022-09-22T13:01:34.891Z,1.13
2022-09-22T13:04:20.770Z,1.30
2022-09-22T13:07:00.515Z,1.33
2022-09-22T13:09:33.335Z,1.17
2022-09-22T13:12:28.740Z,0.93
2022-09-22T13:15:18.630Z,1.02
2022-09-22T13:17:53.487Z,1.10
2022-09-22T13:20:27.716Z,1.08
2022-09-22T13:23:07.891Z,1.27
2022-09-22T13:25:39.035Z,1.15
2022-09-22T13:28:16.831Z,0.93
2022-09-22T13:30:50.041Z,1.30
2022-09-22T13:33:26.785Z,1.00
2022-09-22T13:36:06.089Z,0.80
2022-09-22T13:38:40.471Z,1.00
2022-09-22T13:41:15.736Z,0.90
2022-09-22T13:43:49.947Z,1.15
2022-09-22T13:46:26.553Z,1.00
2022-09-22T13:49:02.354Z,0.88
2022-09-22T13:51:33.838Z,1.10
2022-09-22T13:54:05.447Z,0.90
2022-09-22T13:56:38.464Z,1.23
2022-09-22T13:59:09.712Z,0.70
2022-09-22T14:01:51.494Z,0.95
2022-09-22T14:04:30.700Z,1.70
2022-09-22T14:07:05.175Z,0.80
2022-09-22T14:09:36.760Z,0.80
2022-09-22T14:12:10.101Z,0.60
2022-09-22T14:14:41.639Z,0.80
2022-09-22T14:17:19.008Z,1.50
2022-09-22T14:20:00.784Z,0.88
2022-09-22T14:22:35.325Z,0.90
2022-09-22T14:25:07.651Z,0.90
2022-09-22T14:27:48.942Z,0.70
2022-09-22T14:30:22.192Z,0.80
2022-09-22T14:32:56.399Z,0.70
2022-09-22T14:35:33.675Z,1.10
2022-09-22T14:38:13.165Z,1.50
2022-09-22T14:40:54.874Z,1.10
2022-09-22T14:43:28.305Z,1.15
2022-09-22T14:46:00.758Z,1.15
2022-09-22T14:48:33.684Z,0.93
2022-09-22T14:51:10.574Z,1.40
2022-09-22T14:56:27.548Z,0.80
2022-09-22T14:59:01.217Z,1.05
2022-09-22T15:01:47.053Z,0.82
2022-09-22T15:04:23.384Z,1.08
2022-09-22T15:07:00.782Z,1.50
2022-09-22T15:09:35.540Z,0.90
2022-09-22T15:12:30.501Z,1.00
2022-09-22T15:15:03.197Z,1.00
2022-09-22T15:17:54.731Z,0.80
2022-09-22T15:44:12.474Z,2.15
2022-09-22T15:46:46.605Z,1.85
2022-09-22T15:49:22.804Z,1.10
2022-09-22T15:51:54.834Z,1.33
2022-09-22T15:54:27.731Z,1.10
2022-09-22T15:57:00.246Z,1.15
2022-09-22T15:59:36.315Z,1.20
2022-09-22T16:02:14.046Z,1.20
2022-09-22T16:04:45.604Z,0.80
2022-09-22T16:07:17.565Z,1.05
2022-09-22T16:09:49.118Z,1.10
2022-09-22T16:12:23.479Z,1.55
2022-09-22T16:14:57.890Z,1.23
2022-09-22T16:17:29.369Z,1.15
2022-09-22T16:20:01.412Z,1.20
2022-09-22T16:22:33.582Z,1.30
2022-09-22T16:25:06.894Z,1.33
2022-09-22T16:27:39.273Z,1.17
2022-09-22T16:30:14.465Z,1.00
2022-09-22T16:32:45.542Z,1.42
2022-09-22T16:35:16.483Z,1.08
2022-09-22T16:37:48.603Z,1.00
2022-09-22T16:40:20.304Z,1.17
2022-09-22T16:42:51.246Z,1.70
2022-09-22T16:45:40.649Z,2.53
2022-09-22T16:48:13.294Z,2.45
2022-09-22T16:50:46.341Z,5.97
2022-09-22T16:53:17.357Z,2.80
2022-09-22T16:55:51.601Z,1.77
2022-09-22T16:58:22.779Z,2.25
2022-09-22T17:00:56.450Z,2.40
2022-09-22T17:03:27.708Z,3.00
2022-09-22T17:06:05.881Z,2.25
2022-09-22T17:08:38.020Z,2.78
2022-09-22T17:11:09.572Z,2.08
2022-09-22T17:13:40.591Z,2.60
2022-09-22T17:16:24.813Z,3.13
2022-09-22T17:18:57.022Z,2.33
2022-09-22T17:21:31.191Z,2.78
2022-09-22T17:24:05.261Z,2.63
2022-09-22T17:26:38.646Z,2.30
2022-09-22T17:29:11.169Z,2.10
2022-09-22T17:31:44.918Z,2.00
2022-09-22T17:34:17.407Z,1.90
2022-09-22T17:36:48.772Z,1.67
2022-09-22T17:39:20.092Z,1.40
2022-09-22T17:41:50.918Z,1.77
2022-09-22T17:44:29.568Z,1.73
2022-09-22T17:47:16.033Z,1.35
2022-09-22T17:50:00.293Z,1.75
2022-09-22T17:52:44.049Z,1.67
2022-09-22T17:55:22.614Z,1.55
2022-09-22T17:57:54.777Z,1.27
2022-09-22T18:00:27.348Z,1.35
2022-09-22T18:03:01.057Z,1.20
2022-09-22T18:05:32.451Z,1.00
2022-09-22T18:08:03.542Z,1.00
2022-09-22T18:10:35.557Z,1.02
2022-09-22T18:13:10.707Z,1.27
2022-09-22T18:15:42.351Z,1.42
2022-09-22T18:18:17.278Z,1.52
2022-09-22T18:20:48.839Z,1.38
2022-09-22T18:23:20.404Z,1.23
2022-09-22T18:25:52.197Z,1.60
2022-09-22T18:28:24.508Z,1.73
2022-09-22T18:30:56.367Z,1.27
2022-09-22T18:33:31.402Z,1.40
2022-09-22T18:36:02.613Z,1.27
2022-09-22T18:38:34.416Z,1.08
2022-09-22T18:41:05.608Z,1.17
2022-09-22T18:43:37.122Z,1.00
2022-09-22T18:46:08.771Z,1.25
2022-09-22T18:48:42.511Z,1.00
2022-09-22T18:51:13.860Z,1.20
2022-09-22T18:53:44.728Z,1.10
2022-09-22T18:56:19.847Z,1.70
2022-09-22T18:58:50.978Z,1.70
2022-09-22T19:01:23.510Z,1.00
2022-09-22T19:03:58.752Z,1.23
2022-09-22T19:06:30.341Z,1.58
2022-09-22T19:09:01.707Z,1.80
2022-09-22T19:11:35.257Z,1.27
2022-09-22T19:14:06.373Z,1.38
2022-09-22T19:16:39.895Z,1.55
2022-09-22T19:19:13.687Z,1.30
2022-09-22T19:21:45.205Z,1.20
2022-09-22T19:24:16.439Z,1.13
2022-09-22T19:26:48.454Z,1.50
2022-09-22T19:29:20.063Z,1.60
2022-09-22T19:31:52.020Z,1.27
2022-09-22T19:34:26.098Z,1.38
2022-09-22T19:36:58.705Z,1.58
2022-09-22T19:39:32.568Z,1.70
2022-09-22T19:42:04.354Z,1.70
2022-09-22T19:44:36.112Z,1.35
2022-09-22T19:47:07.915Z,1.60
2022-09-22T19:49:42.362Z,1.20
2022-09-22T20:11:26.900Z,1.40
2022-09-22T20:14:12.902Z,1.40
2022-09-22T20:16:46.591Z,1.30
2022-09-22T20:19:18.081Z,1.45
2022-09-22T20:21:51.288Z,1.73
2022-09-22T20:24:24.444Z,1.60
2022-09-22T20:26:56.533Z,1.42
2022-09-22T20:29:30.805Z,1.35
2022-09-22T20:32:02.373Z,1.42
2022-09-22T20:34:33.451Z,1.40
2022-09-22T20:37:04.688Z,1.50
2022-09-22T20:39:36.061Z,2.03
2022-09-22T20:42:07.890Z,1.55
2022-09-22T20:44:44.469Z,1.75
2022-09-22T20:47:17.737Z,1.65
2022-09-22T20:49:51.900Z,1.63
2022-09-22T20:52:23.961Z,1.67
2022-09-22T20:54:55.356Z,1.83
2022-09-22T20:57:32.625Z,1.63
2022-09-22T21:00:06.728Z,1.65
2022-09-22T21:02:37.578Z,1.73
2022-09-22T21:05:09.097Z,1.50
2022-09-22T21:07:40.035Z,1.70
2022-09-22T21:10:23.829Z,1.70
2022-09-22T21:12:55.336Z,1.90
2022-09-22T21:15:30.386Z,1.63
2022-09-22T21:18:01.222Z,2.30
2022-09-22T21:20:32.367Z,1.80
2022-09-22T21:23:03.480Z,2.25
2022-09-22T21:25:34.325Z,2.30
2022-09-22T21:28:06.174Z,2.15
2022-09-22T21:30:39.734Z,2.20
2022-09-22T21:33:12.768Z,2.00
2022-09-22T21:35:44.022Z,1.88
2022-09-22T21:38:15.183Z,1.90
2022-09-22T21:40:46.094Z,1.60
2022-09-22T21:43:17.245Z,2.10
2022-09-22T21:45:51.295Z,2.38
2022-09-22T21:48:22.835Z,1.73
2022-09-22T21:51:02.470Z,1.77
2022-09-22T21:53:34.308Z,1.90
2022-09-22T21:56:07.835Z,1.60
2022-09-22T21:58:40.682Z,2.00
2022-09-22T22:01:16.308Z,1.60
2022-09-22T22:03:48.640Z,1.75
2022-09-22T22:06:21.369Z,1.60
2022-09-22T22:08:54.166Z,2.00
2022-09-22T22:11:26.879Z,1.90
2022-09-22T22:13:59.777Z,1.95
2022-09-22T22:16:37.725Z,2.10
2022-09-22T22:19:09.429Z,1.95
2022-09-22T22:21:41.641Z,1.75
2022-09-22T22:24:26.461Z,3.17
2022-09-22T22:26:58.853Z,2.13
2022-09-22T22:29:31.913Z,1.63
2022-09-22T22:32:07.148Z,1.35
2022-09-22T22:34:38.470Z,1.33
2022-09-22T22:37:10.915Z,1.50
2022-09-22T22:39:41.790Z,2.15
2022-09-22T22:42:13.168Z,1.73
2022-09-22T22:44:44.031Z,2.67
2022-09-22T22:47:17.517Z,2.22
2022-09-22T22:49:48.850Z,2.13
2022-09-22T22:52:19.669Z,2.20
2022-09-22T22:54:52.230Z,2.45
2022-09-22T22:57:23.030Z,1.92
2022-09-22T22:59:54.141Z,2.10
2022-09-22T23:02:27.626Z,2.53
2022-09-22T23:05:01.434Z,2.45
2022-09-22T23:07:32.337Z,2.17
2022-09-22T23:10:09.098Z,2.05
2022-09-22T23:12:41.193Z,2.38
2022-09-22T23:15:13.076Z,2.10
2022-09-22T23:17:46.495Z,2.20
2022-09-22T23:20:17.393Z,1.98
2022-09-22T23:22:49.391Z,2.42
2022-09-22T23:25:20.583Z,2.40
2022-09-22T23:27:52.224Z,2.30
2022-09-22T23:30:23.058Z,2.38
2022-09-22T23:32:57.401Z,2.30
2022-09-22T23:35:28.180Z,2.58
2022-09-22T23:37:58.997Z,2.40
2022-09-22T23:40:32.271Z,2.50
2022-09-22T23:43:03.962Z,2.13
2022-09-22T23:45:34.872Z,2.35
2022-09-22T23:48:09.054Z,2.50
2022-09-22T23:50:39.912Z,2.63
2022-09-22T23:53:10.682Z,2.55
2022-09-22T23:55:41.464Z,2.63
2022-09-22T23:58:14.543Z,2.45
